Time;durP1;ratioP1;P1;durP2;ratioP2;P2;SDS_P1;SDS_P2;PMS_P1;PMS_P2;Temp;Humidity;BMP_temperature;BMP_pressure;BME280_temperature;BME280_humidity;BME280_pressure;Samples;Min_cycle;Max_cycle;Signal;HPM_P1;HPM_P2
2024/01/14 00:02:17;;;;;;;;;;;-8.30;99.90;;;;;;4979487;28;19932;-72
2024/01/14 00:04:44;;;;;;;;;;;-8.50;99.90;;;;;;4979100;28;19926;-72
2024/01/14 00:07:10;;;;;;;;;;;-8.50;99.90;;;;;;4978937;28;19930;-71
2024/01/14 00:09:37;;;;;;;;;;;-8.50;99.90;;;;;;4978614;28;19937;-71
2024/01/14 00:12:04;;;;;;;;;;;-8.60;99.90;;;;;;4978133;28;19926;-71
2024/01/14 00:14:30;;;;;;;;;;;-8.60;99.90;;;;;;4978494;28;19926;-71
2024/01/14 00:16:58;;;;;;;;;;;-8.60;99.90;;;;;;4979145;28;19926;-72
2024/01/14 00:19:25;;;;;;;;;;;-8.70;99.90;;;;;;4978074;28;19926;-72
2024/01/14 00:21:51;;;;;;;;;;;-8.70;99.90;;;;;;4978089;28;19926;-72
2024/01/14 00:24:18;;;;;;;;;;;-8.70;99.90;;;;;;4979122;28;19933;-72
2024/01/14 00:26:45;;;;;;;;;;;-8.70;99.90;;;;;;4978989;28;19926;-72
2024/01/14 00:29:11;;;;;;;;;;;-8.80;99.90;;;;;;4978559;28;19933;-72
2024/01/14 00:31:38;;;;;;;;;;;-8.80;99.90;;;;;;4978237;28;19926;-73
2024/01/14 00:34:06;;;;;;;;;;;-8.90;99.90;;;;;;4977708;28;20384;-71
2024/01/14 00:36:32;;;;;;;;;;;-8.90;99.90;;;;;;4978356;28;20388;-72
2024/01/14 00:38:59;;;;;;;;;;;-8.90;99.90;;;;;;4977976;28;19930;-72
2024/01/14 00:41:25;;;;;;;;;;;-8.90;99.90;;;;;;4978156;28;19926;-73
2024/01/14 00:43:52;;;;;;;;;;;-9.00;99.90;;;;;;4977952;28;19926;-72
2024/01/14 00:46:18;;;;;;;;;;;-8.90;99.90;;;;;;4977741;28;19933;-72
2024/01/14 00:48:45;;;;;;;;;;;-9.00;99.90;;;;;;4977511;28;19927;-72
2024/01/14 00:51:13;;;;;;;;;;;-9.10;99.90;;;;;;4977766;28;19930;-72
2024/01/14 00:53:39;;;;;;;;;;;-9.00;99.90;;;;;;4977509;28;19933;-72
2024/01/14 00:56:06;;;;;;;;;;;-9.10;99.90;;;;;;4977706;28;19926;-72
2024/01/14 00:58:32;;;;;;;;;;;-9.20;99.90;;;;;;4977112;28;19926;-72
2024/01/14 01:00:59;;;;;;;;;;;-9.00;99.90;;;;;;4977408;28;19926;-72
2024/01/14 06:28:28;;;;;;;;;;;-8.90;99.90;;;;;;5303834;23;19926;-73
2024/01/14 06:30:55;;;;;;;;;;;-9.10;99.90;;;;;;4975810;28;19949;-73
2024/01/14 06:33:21;;;;;;;;;;;-9.20;99.90;;;;;;4975644;28;19930;-73
2024/01/14 06:35:48;;;;;;;;;;;-9.20;99.90;;;;;;4975908;28;19953;-73
2024/01/14 06:38:15;;;;;;;;;;;-9.30;99.90;;;;;;4975305;28;20410;-74
2024/01/14 06:40:41;;;;;;;;;;;-9.30;99.90;;;;;;4975736;28;19926;-74
2024/01/14 06:43:08;;;;;;;;;;;-9.40;99.90;;;;;;4975587;28;19953;-73
2024/01/14 06:45:36;;;;;;;;;;;-9.50;99.90;;;;;;4975959;28;19930;-73
2024/01/14 06:48:02;;;;;;;;;;;-9.50;99.90;;;;;;4975421;28;19931;-73
2024/01/14 06:50:29;;;;;;;;;;;-9.50;99.90;;;;;;4975569;28;19926;-73
2024/01/14 06:52:55;;;;;;;;;;;-9.60;99.90;;;;;;4975213;28;19926;-73
2024/01/14 06:55:22;;;;;;;;;;;-9.60;99.90;;;;;;4975148;28;20387;-73
2024/01/14 06:57:48;;;;;;;;;;;-9.60;99.90;;;;;;4975336;28;20006;-74
2024/01/14 07:00:15;;;;;;;;;;;-9.60;99.90;;;;;;4975426;28;19927;-74
2024/01/14 07:02:43;;;;;;;;;;;-9.70;99.90;;;;;;4975392;28;19926;-74
2024/01/14 07:05:10;;;;;;;;;;;-9.70;99.90;;;;;;4975207;28;19926;-74
2024/01/14 07:07:37;;;;;;;;;;;-9.60;99.90;;;;;;4975431;28;19926;-73
2024/01/14 07:10:03;;;;;;;;;;;-9.80;99.90;;;;;;4976327;28;19926;-73
2024/01/14 07:12:30;;;;;;;;;;;-9.80;99.90;;;;;;4975538;28;20291;-73
2024/01/14 07:14:57;;;;;;;;;;;-9.70;99.90;;;;;;4975687;28;19926;-74
2024/01/14 07:17:23;;;;;;;;;;;-9.70;99.90;;;;;;4975588;28;19929;-73
2024/01/14 07:19:51;;;;;;;;;;;-9.70;99.90;;;;;;4975321;28;20017;-73
2024/01/14 07:22:18;;;;;;;;;;;-9.60;99.90;;;;;;4975433;28;19934;-74
2024/01/14 07:24:44;;;;;;;;;;;-9.60;99.90;;;;;;4975626;28;20323;-74
2024/01/14 07:27:11;;;;;;;;;;;-9.50;99.90;;;;;;4974652;28;20380;-73
2024/01/14 07:29:37;;;;;;;;;;;-9.40;99.90;;;;;;4974707;28;19926;-73
2024/01/14 07:32:04;;;;;;;;;;;-9.30;99.90;;;;;;4975316;28;19926;-73
2024/01/14 07:34:31;;;;;;;;;;;-9.20;99.90;;;;;;4975094;28;19933;-74
2024/01/14 07:36:59;;;;;;;;;;;-9.10;99.90;;;;;;4974919;28;20030;-72
2024/01/14 07:39:26;;;;;;;;;;;-8.80;99.90;;;;;;4974969;28;19933;-73
2024/01/14 07:41:52;;;;;;;;;;;-8.70;99.90;;;;;;4974817;28;19926;-73
2024/01/14 07:44:19;;;;;;;;;;;-8.30;99.90;;;;;;4974978;28;19967;-73
2024/01/14 07:46:46;;;;;;;;;;;-8.30;99.90;;;;;;4974879;28;19933;-74
2024/01/14 07:49:12;;;;;;;;;;;-8.10;99.90;;;;;;4974525;28;19926;-74
2024/01/14 07:51:39;;;;;;;;;;;-7.90;99.90;;;;;;4974761;28;19937;-74
2024/01/14 07:54:07;;;;;;;;;;;-7.50;99.90;;;;;;4974674;28;19926;-74
2024/01/14 07:56:33;;;;;;;;;;;-7.10;99.90;;;;;;4974913;28;19926;-73
2024/01/14 07:59:00;;;;;;;;;;;-6.70;99.90;;;;;;4975217;28;19926;-74
2024/01/14 08:01:26;;;;;;;;;;;-6.20;99.90;;;;;;4974794;28;19926;-73
2024/01/14 08:03:53;;;;;;;;;;;-5.50;99.90;;;;;;4974748;28;19933;-73
2024/01/14 08:06:20;;;;;;;;;;;-4.80;99.90;;;;;;4974677;28;19926;-73
2024/01/14 08:08:47;;;;;;;;;;;-4.10;99.90;;;;;;4974442;28;19966;-73
2024/01/14 08:11:15;;;;;;;;;;;-3.40;99.90;;;;;;4974578;28;19976;-73
2024/01/14 08:13:41;;;;;;;;;;;-2.80;99.90;;;;;;4974157;28;20372;-73
2024/01/14 08:16:08;;;;;;;;;;;-2.30;99.90;;;;;;4976166;28;19933;-73
2024/01/14 08:18:34;;;;;;;;;;;-1.80;99.90;;;;;;4977916;28;19933;-73
2024/01/14 08:21:01;;;;;;;;;;;-1.60;99.90;;;;;;4978168;28;19926;-73
2024/01/14 08:23:29;;;;;;;;;;;-1.40;99.90;;;;;;4978044;28;19926;-73
2024/01/14 08:25:56;;;;;;;;;;;-1.50;99.90;;;;;;4978112;28;19933;-73
2024/01/14 08:28:25;;;;;;;;;;;-1.90;99.90;;;;;;4977500;28;20368;-72
2024/01/14 08:30:51;;;;;;;;;;;-2.00;99.90;;;;;;4977569;28;19966;-73
2024/01/14 08:33:18;;;;;;;;;;;-2.10;99.90;;;;;;4977993;28;19926;-73
2024/01/14 08:35:44;;;;;;;;;;;-2.10;99.90;;;;;;4977912;28;19926;-73
2024/01/14 08:38:11;;;;;;;;;;;-2.00;99.90;;;;;;4977296;28;20418;-73
2024/01/14 08:40:38;;;;;;;;;;;-1.90;99.90;;;;;;4977814;28;19933;-73
2024/01/14 08:43:04;;;;;;;;;;;-1.80;99.90;;;;;;4977699;28;19926;-73
2024/01/14 08:45:32;;;;;;;;;;;-1.60;99.90;;;;;;4977766;28;19926;-73
2024/01/14 08:47:59;;;;;;;;;;;-1.50;99.90;;;;;;4977539;28;19937;-73
2024/01/14 08:50:25;;;;;;;;;;;-1.60;99.90;;;;;;4977526;28;19930;-73
2024/01/14 08:52:52;;;;;;;;;;;-1.80;99.90;;;;;;4977499;28;19954;-74
2024/01/14 08:55:18;;;;;;;;;;;-2.30;99.90;;;;;;4977793;28;19933;-73
2024/01/14 08:57:45;;;;;;;;;;;-2.50;99.90;;;;;;4977506;28;19930;-74
2024/01/14 09:00:13;;;;;;;;;;;-2.60;99.90;;;;;;4976728;28;20589;-73
2024/01/14 09:02:41;;;;;;;;;;;-2.70;99.90;;;;;;4977329;28;19959;-73
2024/01/14 09:05:08;;;;;;;;;;;-2.80;99.90;;;;;;4979103;28;19926;-74
2024/01/14 09:07:34;;;;;;;;;;;-3.00;99.90;;;;;;4978680;28;19933;-73
2024/01/14 09:10:01;;;;;;;;;;;-2.90;99.90;;;;;;4979613;28;19926;-75
2024/01/14 09:12:27;;;;;;;;;;;-2.80;99.90;;;;;;4981956;28;19930;-73
2024/01/14 09:14:54;;;;;;;;;;;-2.60;99.90;;;;;;4983580;28;20295;-73
2024/01/14 09:17:20;;;;;;;;;;;-2.50;99.90;;;;;;4984162;28;20012;-74
2024/01/14 09:19:48;;;;;;;;;;;-2.40;99.90;;;;;;4983296;28;19933;-73
2024/01/14 09:22:15;;;;;;;;;;;-2.30;99.90;;;;;;4980536;28;20376;-73
2024/01/14 09:24:45;;;;;;;;;;;-2.10;99.90;;;;;;4977635;28;19926;-73
2024/01/14 09:27:12;;;;;;;;;;;-2.00;99.90;;;;;;4977356;28;19926;-74
2024/01/14 09:29:39;;;;;;;;;;;-1.80;99.90;;;;;;4976920;28;19930;-73
2024/01/14 09:32:06;;;;;;;;;;;-1.60;99.90;;;;;;4977264;28;19933;-74
2024/01/14 09:34:32;;;;;;;;;;;-1.30;99.90;;;;;;4976720;28;19933;-74
2024/01/14 09:37:00;;;;;;;;;;;-1.00;99.90;;;;;;4976715;28;19936;-74
2024/01/14 09:39:27;;;;;;;;;;;-0.60;99.90;;;;;;4976687;28;19926;-76
2024/01/14 09:42:00;;;;;;;;;;;-0.60;99.90;;;;;;4976681;28;20396;-73
2024/01/14 09:44:26;;;;;;;;;;;-0.30;99.90;;;;;;4976589;28;19979;-74
2024/01/14 09:46:53;;;;;;;;;;;0.00;99.90;;;;;;4976599;28;19963;-73
2024/01/14 09:49:20;;;;;;;;;;;0.30;99.90;;;;;;4976808;28;19930;-73
2024/01/14 09:51:49;;;;;;;;;;;0.30;99.90;;;;;;4976168;28;19926;-73
2024/01/14 09:54:18;;;;;;;;;;;0.60;99.90;;;;;;4975995;28;19926;-73
2024/01/14 09:56:46;;;;;;;;;;;1.00;99.90;;;;;;4975962;28;19926;-73
2024/01/14 09:59:15;;;;;;;;;;;1.30;99.90;;;;;;4976270;28;20369;-73
2024/01/14 10:01:42;;;;;;;;;;;1.20;99.90;;;;;;4976024;28;19926;-73
2024/01/14 10:04:09;;;;;;;;;;;0.80;99.90;;;;;;4975998;28;19927;-73
2024/01/14 10:06:37;;;;;;;;;;;0.60;99.90;;;;;;4975972;28;19926;-73
2024/01/14 10:09:04;;;;;;;;;;;0.30;99.90;;;;;;4975909;28;19927;-73
2024/01/14 10:11:32;;;;;;;;;;;-0.10;99.90;;;;;;4975749;28;19973;-73
2024/01/14 10:13:59;;;;;;;;;;;-0.60;99.90;;;;;;4976139;28;19949;-73
2024/01/14 10:16:26;;;;;;;;;;;-0.90;99.90;;;;;;4975749;28;20293;-73
2024/01/14 10:18:55;;;;;;;;;;;-1.20;99.90;;;;;;4975599;28;19926;-73
2024/01/14 10:21:22;;;;;;;;;;;-1.50;99.90;;;;;;4975887;28;19972;-73
2024/01/14 10:23:49;;;;;;;;;;;-1.80;99.90;;;;;;4975597;28;19933;-73
2024/01/14 10:26:17;;;;;;;;;;;-2.00;99.90;;;;;;4975517;28;20002;-74
2024/01/14 10:28:45;;;;;;;;;;;-2.10;99.90;;;;;;4975136;28;19926;-73
2024/01/14 10:31:13;;;;;;;;;;;-2.20;99.90;;;;;;4975341;28;19926;-72
2024/01/14 10:33:40;;;;;;;;;;;-2.20;99.90;;;;;;4975370;28;19926;-73
2024/01/14 10:36:08;;;;;;;;;;;-2.20;99.90;;;;;;4975488;28;19933;-72
2024/01/14 10:38:35;;;;;;;;;;;-2.40;99.90;;;;;;4974570;28;19926;-73
2024/01/14 10:41:03;;;;;;;;;;;-2.50;99.90;;;;;;4975177;28;19926;-73
2024/01/14 10:43:29;;;;;;;;;;;-2.50;99.90;;;;;;4975638;28;19981;-72
2024/01/14 10:45:58;;;;;;;;;;;-2.60;99.90;;;;;;4975541;28;19934;-72
2024/01/14 10:48:26;;;;;;;;;;;-2.70;99.90;;;;;;4975286;28;19969;-73
2024/01/14 10:50:54;;;;;;;;;;;-2.70;99.90;;;;;;4975434;28;19973;-73
2024/01/14 10:53:23;;;;;;;;;;;-2.60;99.90;;;;;;4975364;28;19977;-73
2024/01/14 10:55:51;;;;;;;;;;;-2.60;99.90;;;;;;4975528;28;19926;-72
2024/01/14 10:58:21;;;;;;;;;;;-2.60;99.90;;;;;;4975218;28;19926;-73
2024/01/14 11:00:49;;;;;;;;;;;-2.50;99.90;;;;;;4975310;28;19926;-73
2024/01/14 11:03:17;;;;;;;;;;;-2.40;99.90;;;;;;4975051;28;19942;-73
2024/01/14 11:05:44;;;;;;;;;;;-2.40;99.90;;;;;;4976032;28;19926;-73
2024/01/14 11:08:12;;;;;;;;;;;-2.40;99.90;;;;;;4976399;28;19933;-73
2024/01/14 11:10:41;;;;;;;;;;;-2.40;99.90;;;;;;4977162;28;19972;-73
2024/01/14 11:13:13;;;;;;;;;;;-2.30;99.90;;;;;;4975804;28;19926;-72
2024/01/14 11:15:43;;;;;;;;;;;-2.30;99.90;;;;;;4976604;28;19969;-71
2024/01/14 11:18:12;;;;;;;;;;;-2.20;99.90;;;;;;4975859;28;20399;-71
2024/01/14 11:20:44;;;;;;;;;;;-2.20;99.90;;;;;;4976112;28;20003;-71
2024/01/14 11:23:11;;;;;;;;;;;-2.30;99.90;;;;;;4976624;28;19930;-73
2024/01/14 11:25:39;;;;;;;;;;;-2.30;99.90;;;;;;4975940;28;19927;-76
2024/01/14 11:28:06;;;;;;;;;;;-2.30;99.90;;;;;;4976488;28;20024;-74
2024/01/14 11:30:53;;;;;;;;;;;-2.10;99.90;;;;;;4975011;28;20300;-72
2024/01/14 11:33:29;;;;;;;;;;;-2.20;99.90;;;;;;4975037;28;20435;-71
2024/01/14 11:35:57;;;;;;;;;;;-2.10;99.90;;;;;;4975497;28;19958;-72
2024/01/14 11:38:30;;;;;;;;;;;-2.20;99.90;;;;;;4975209;28;20069;-72
2024/01/14 11:40:57;;;;;;;;;;;-2.20;99.90;;;;;;4976623;28;19922;-73
2024/01/14 11:43:25;;;;;;;;;;;-2.20;99.90;;;;;;4974900;28;20002;-72
2024/01/14 11:45:52;;;;;;;;;;;-2.10;99.90;;;;;;4974847;28;19926;-73
2024/01/14 11:48:20;;;;;;;;;;;-2.10;99.90;;;;;;4974747;28;19949;-73
2024/01/14 11:50:50;;;;;;;;;;;-2.10;99.90;;;;;;4977688;28;19926;-72
2024/01/14 11:53:18;;;;;;;;;;;-2.10;99.90;;;;;;4978501;28;20016;-73
2024/01/14 11:55:46;;;;;;;;;;;-2.10;99.90;;;;;;4978883;28;19926;-71
2024/01/14 11:58:14;;;;;;;;;;;-2.10;99.90;;;;;;4978391;28;19934;-73
2024/01/14 12:00:41;;;;;;;;;;;-2.10;99.90;;;;;;4978158;28;19930;-72
2024/01/14 12:03:08;;;;;;;;;;;-2.10;99.90;;;;;;4978545;28;19926;-72
2024/01/14 12:05:35;;;;;;;;;;;-2.10;99.90;;;;;;4978165;28;19927;-74
2024/01/14 12:08:02;;;;;;;;;;;-2.10;99.90;;;;;;4978017;28;19933;-73
2024/01/14 12:10:31;;;;;;;;;;;-2.10;99.90;;;;;;4978316;28;19926;-72
2024/01/14 12:12:59;;;;;;;;;;;-2.00;99.90;;;;;;4978639;28;20288;-73
2024/01/14 12:15:26;;;;;;;;;;;-2.00;99.90;;;;;;4979081;28;19965;-73
2024/01/14 12:17:53;;;;;;;;;;;-2.00;99.90;;;;;;4979013;28;19933;-73
2024/01/14 12:20:21;;;;;;;;;;;-1.90;99.90;;;;;;4979558;28;19977;-73
2024/01/14 12:22:48;;;;;;;;;;;-1.90;99.90;;;;;;4979486;28;19933;-73
2024/01/14 12:25:15;;;;;;;;;;;-1.90;99.90;;;;;;4979229;28;19926;-72
2024/01/14 12:27:43;;;;;;;;;;;-1.80;99.90;;;;;;4979179;28;19926;-72
2024/01/14 12:30:09;;;;;;;;;;;-1.80;99.90;;;;;;4979127;28;19926;-73
2024/01/14 12:32:36;;;;;;;;;;;-1.80;99.90;;;;;;4979970;28;19926;-73
2024/01/14 12:35:03;;;;;;;;;;;-1.80;99.90;;;;;;4979255;28;19934;-72
2024/01/14 12:37:30;;;;;;;;;;;-1.80;99.90;;;;;;4977961;28;19975;-73
2024/01/14 12:39:56;;;;;;;;;;;-1.80;99.90;;;;;;4977614;28;19949;-72
2024/01/14 12:42:23;;;;;;;;;;;-1.80;99.90;;;;;;4977796;28;19933;-73
2024/01/14 12:44:51;;;;;;;;;;;-1.80;99.90;;;;;;4979993;28;19933;-72
2024/01/14 12:47:18;;;;;;;;;;;-1.80;99.90;;;;;;4979259;28;19933;-73
2024/01/14 12:49:44;;;;;;;;;;;-1.80;99.90;;;;;;4979110;28;19926;-74
2024/01/14 12:52:11;;;;;;;;;;;-1.80;99.90;;;;;;4979062;28;19977;-73
2024/01/14 12:54:37;;;;;;;;;;;-1.80;99.90;;;;;;4978908;28;19926;-73
2024/01/14 12:57:05;;;;;;;;;;;-1.80;99.90;;;;;;4978734;28;20318;-72
2024/01/14 12:59:32;;;;;;;;;;;-1.70;99.90;;;;;;4978982;28;19937;-73
2024/01/14 13:02:00;;;;;;;;;;;-1.80;99.90;;;;;;4979892;28;19926;-74
2024/01/14 13:04:27;;;;;;;;;;;-1.80;99.90;;;;;;4980086;28;19934;-74
2024/01/14 13:06:54;;;;;;;;;;;-1.80;99.90;;;;;;4979038;28;19926;-73
2024/01/14 13:09:21;;;;;;;;;;;-1.70;99.90;;;;;;4979276;28;19930;-73
2024/01/14 13:11:47;;;;;;;;;;;-1.70;99.90;;;;;;4978498;28;19926;-72
2024/01/14 13:14:14;;;;;;;;;;;-1.70;99.90;;;;;;4978474;28;19926;-73
2024/01/14 13:16:40;;;;;;;;;;;-1.70;99.90;;;;;;4978550;28;19926;-73
2024/01/14 13:19:08;;;;;;;;;;;-1.70;99.90;;;;;;4979208;28;19926;-73
2024/01/14 13:21:35;;;;;;;;;;;-1.70;99.90;;;;;;4979389;28;19934;-73
2024/01/14 13:24:02;;;;;;;;;;;-1.70;99.90;;;;;;4978809;28;19933;-73
2024/01/14 13:26:28;;;;;;;;;;;-1.70;99.90;;;;;;4976647;28;19926;-73
2024/01/14 13:28:55;;;;;;;;;;;-1.80;99.90;;;;;;4976436;28;19926;-74
2024/01/14 13:31:22;;;;;;;;;;;-1.90;99.90;;;;;;4976497;28;19933;-73
2024/01/14 13:33:48;;;;;;;;;;;-1.80;99.90;;;;;;4976876;28;19926;-72
2024/01/14 13:36:16;;;;;;;;;;;-1.90;99.90;;;;;;4976643;28;20009;-72
2024/01/14 13:38:43;;;;;;;;;;;-1.90;99.90;;;;;;4976406;28;19930;-74
2024/01/14 13:41:09;;;;;;;;;;;-1.90;99.90;;;;;;4976506;28;19942;-72
2024/01/14 13:43:36;;;;;;;;;;;-2.00;99.90;;;;;;4976456;28;19949;-72
2024/01/14 13:46:03;;;;;;;;;;;-2.00;99.90;;;;;;4976557;28;19937;-73
2024/01/14 13:48:30;;;;;;;;;;;-2.00;99.90;;;;;;4976257;28;19926;-73
2024/01/14 13:50:56;;;;;;;;;;;-2.20;99.90;;;;;;4976186;28;19977;-72
2024/01/14 13:53:24;;;;;;;;;;;-2.20;99.90;;;;;;4976205;28;19930;-73
2024/01/14 13:55:51;;;;;;;;;;;-2.30;99.90;;;;;;4976366;28;19926;-73
2024/01/14 13:58:17;;;;;;;;;;;-2.40;99.90;;;;;;4976059;28;19933;-72
2024/01/14 14:00:44;;;;;;;;;;;-2.50;99.90;;;;;;4976122;28;19933;-73
2024/01/14 14:03:10;;;;;;;;;;;-2.50;99.90;;;;;;4976129;28;19933;-73
2024/01/14 14:05:37;;;;;;;;;;;-2.60;99.90;;;;;;4976010;28;19926;-72
2024/01/14 14:08:04;;;;;;;;;;;-2.70;99.90;;;;;;4975923;28;19933;-72
2024/01/14 14:10:32;;;;;;;;;;;-2.70;99.90;;;;;;4975889;28;19926;-71
2024/01/14 14:12:58;;;;;;;;;;;-2.80;99.90;;;;;;4974791;28;20397;-72
2024/01/14 14:15:25;;;;;;;;;;;-2.90;99.90;;;;;;4975496;28;19926;-72
2024/01/14 14:17:51;;;;;;;;;;;-2.90;99.90;;;;;;4975746;28;19976;-72
2024/01/14 14:20:18;;;;;;;;;;;-3.00;99.90;;;;;;4975818;28;19926;-72
2024/01/14 14:22:44;;;;;;;;;;;-3.00;99.90;;;;;;4975727;28;19949;-71
2024/01/14 14:25:10;;;;;;;;;;;-3.10;99.90;;;;;;4975397;28;20380;-72
2024/01/14 14:27:38;;;;;;;;;;;-3.20;99.90;;;;;;4975590;28;19929;-72
2024/01/14 14:30:05;;;;;;;;;;;-3.20;99.90;;;;;;4975358;28;20005;-72
2024/01/14 14:32:31;;;;;;;;;;;-3.30;99.90;;;;;;4975540;28;20323;-72
2024/01/14 14:34:58;;;;;;;;;;;-3.30;99.90;;;;;;4975151;28;20407;-72
2024/01/14 14:37:26;;;;;;;;;;;-3.40;99.90;;;;;;4975316;28;19933;-72
2024/01/14 14:39:52;;;;;;;;;;;-3.50;99.90;;;;;;4975425;28;20102;-71
2024/01/14 14:42:19;;;;;;;;;;;-3.50;99.90;;;;;;4975766;28;19926;-72
2024/01/14 14:44:47;;;;;;;;;;;-3.50;99.90;;;;;;4975643;28;19926;-73
2024/01/14 14:47:13;;;;;;;;;;;-3.60;99.90;;;;;;4975334;28;19926;-72
2024/01/14 14:49:41;;;;;;;;;;;-3.70;99.90;;;;;;4975751;28;19976;-72
2024/01/14 14:52:07;;;;;;;;;;;-3.70;99.90;;;;;;4975499;28;19973;-73
2024/01/14 14:54:34;;;;;;;;;;;-3.80;99.90;;;;;;4975378;28;19937;-74
2024/01/14 14:57:00;;;;;;;;;;;-3.80;99.90;;;;;;4975418;28;19927;-72
2024/01/14 14:59:27;;;;;;;;;;;-3.90;99.90;;;;;;4975182;28;19926;-72
2024/01/14 15:01:55;;;;;;;;;;;-3.90;99.90;;;;;;4975145;28;19929;-73
2024/01/14 15:04:21;;;;;;;;;;;-4.00;99.90;;;;;;4975476;28;19937;-74
2024/01/14 15:06:48;;;;;;;;;;;-4.00;99.90;;;;;;4975042;28;19934;-74
2024/01/14 15:09:15;;;;;;;;;;;-4.00;99.90;;;;;;4975243;28;19933;-74
2024/01/14 15:11:42;;;;;;;;;;;-4.10;99.90;;;;;;4976594;28;19933;-74
2024/01/14 15:14:08;;;;;;;;;;;-4.10;99.90;;;;;;4978101;28;19926;-73
2024/01/14 15:16:35;;;;;;;;;;;-4.20;99.90;;;;;;4978369;28;19933;-73
2024/01/14 15:19:03;;;;;;;;;;;-4.20;99.90;;;;;;4977418;28;19926;-73
2024/01/14 15:21:30;;;;;;;;;;;-4.20;99.90;;;;;;4977247;28;19926;-73
2024/01/14 15:23:56;;;;;;;;;;;-4.30;99.90;;;;;;4977348;28;19937;-73
2024/01/14 15:26:23;;;;;;;;;;;-4.30;99.90;;;;;;4980014;28;20280;-74
2024/01/14 15:28:49;;;;;;;;;;;-4.30;99.90;;;;;;4978946;28;19985;-74
2024/01/14 15:31:18;;;;;;;;;;;-4.40;99.90;;;;;;4979116;28;19949;-75
2024/01/14 15:33:45;;;;;;;;;;;-4.50;99.90;;;;;;4978792;28;20372;-74
2024/01/14 15:36:12;;;;;;;;;;;-4.80;99.90;;;;;;4979112;28;19926;-75
2024/01/14 15:38:39;;;;;;;;;;;-4.60;99.90;;;;;;4978870;28;19926;-74
2024/01/14 15:41:06;;;;;;;;;;;-4.60;99.90;;;;;;4978733;28;19926;-74
2024/01/14 15:43:32;;;;;;;;;;;-4.70;99.90;;;;;;4978672;28;19933;-74
2024/01/14 15:45:59;;;;;;;;;;;-4.70;99.90;;;;;;4978696;28;19926;-75
2024/01/14 15:48:25;;;;;;;;;;;-4.70;99.90;;;;;;4978713;28;19933;-74
2024/01/14 15:50:52;;;;;;;;;;;-4.70;99.90;;;;;;4979020;28;19926;-74
2024/01/14 15:53:20;;;;;;;;;;;-4.60;99.90;;;;;;4978962;28;19926;-75
2024/01/14 15:55:46;;;;;;;;;;;-4.70;99.90;;;;;;4978468;28;19926;-75
2024/01/14 15:58:13;;;;;;;;;;;-4.70;99.90;;;;;;4978244;28;19933;-75
2024/01/14 16:00:39;;;;;;;;;;;-4.80;99.90;;;;;;4978457;28;19926;-75
2024/01/14 16:03:06;;;;;;;;;;;-4.90;99.90;;;;;;4978505;28;19926;-75
2024/01/14 16:05:32;;;;;;;;;;;-4.90;99.90;;;;;;4978290;28;19926;-75
2024/01/14 16:07:59;;;;;;;;;;;-5.00;99.90;;;;;;4978259;28;19933;-74
2024/01/14 16:10:29;;;;;;;;;;;-4.90;99.90;;;;;;4978142;28;19926;-74
2024/01/14 16:12:55;;;;;;;;;;;-4.90;99.90;;;;;;4978935;28;20009;-75
2024/01/14 16:15:22;;;;;;;;;;;-5.00;99.90;;;;;;4978019;28;19926;-73
2024/01/14 16:17:50;;;;;;;;;;;-5.00;99.90;;;;;;4977658;28;20389;-74
2024/01/14 16:20:17;;;;;;;;;;;-5.10;99.90;;;;;;4977978;28;19926;-74
2024/01/14 16:22:44;;;;;;;;;;;-5.20;99.90;;;;;;4978008;28;19972;-74
2024/01/14 16:25:11;;;;;;;;;;;-5.20;99.90;;;;;;4977992;28;20017;-73
2024/01/14 16:27:39;;;;;;;;;;;-5.30;99.90;;;;;;4977904;28;19933;-74
2024/01/14 16:30:06;;;;;;;;;;;-5.30;99.90;;;;;;4977734;28;19926;-73
2024/01/14 16:32:32;;;;;;;;;;;-5.20;99.90;;;;;;4977755;28;19926;-73
2024/01/14 16:34:59;;;;;;;;;;;-5.30;99.90;;;;;;4977554;28;19930;-73
2024/01/14 16:37:25;;;;;;;;;;;-5.30;99.90;;;;;;4976706;28;19956;-73
2024/01/14 16:39:54;;;;;;;;;;;-5.30;99.90;;;;;;4977626;28;19930;-73
2024/01/14 16:42:21;;;;;;;;;;;-5.30;99.90;;;;;;4977300;28;20396;-74
2024/01/14 16:44:49;;;;;;;;;;;-5.30;99.90;;;;;;4977681;28;20017;-73
2024/01/14 16:47:15;;;;;;;;;;;-5.40;99.90;;;;;;4977494;28;20045;-74
2024/01/14 16:49:42;;;;;;;;;;;-5.40;99.90;;;;;;4977519;28;19930;-73
2024/01/14 16:52:09;;;;;;;;;;;-5.30;99.90;;;;;;4977167;28;20410;-72
2024/01/14 16:54:35;;;;;;;;;;;-5.40;99.90;;;;;;4977511;28;19933;-72
2024/01/14 16:57:02;;;;;;;;;;;-5.40;99.90;;;;;;4977218;28;20391;-73
2024/01/14 16:59:28;;;;;;;;;;;-5.40;99.90;;;;;;4977979;28;19926;-73
2024/01/14 17:01:56;;;;;;;;;;;-5.40;99.90;;;;;;4978636;28;20017;-73
2024/01/14 17:04:23;;;;;;;;;;;-5.40;99.90;;;;;;4978355;28;19926;-72
2024/01/14 17:06:50;;;;;;;;;;;-5.50;99.90;;;;;;4978221;28;19930;-73
2024/01/14 17:09:17;;;;;;;;;;;-5.50;99.90;;;;;;4978407;28;20339;-72
2024/01/14 17:11:47;;;;;;;;;;;-5.60;99.90;;;;;;4978966;28;20017;-73
2024/01/14 17:14:13;;;;;;;;;;;-5.60;99.90;;;;;;4978870;28;19930;-72
2024/01/14 17:16:40;;;;;;;;;;;-5.70;99.90;;;;;;4976904;28;19927;-72
2024/01/14 17:19:08;;;;;;;;;;;-5.70;99.90;;;;;;4977094;28;19930;-72
2024/01/14 17:21:34;;;;;;;;;;;-5.70;99.90;;;;;;4977009;28;19930;-72
2024/01/14 17:24:01;;;;;;;;;;;-5.80;99.90;;;;;;4976880;28;19969;-72
2024/01/14 17:26:28;;;;;;;;;;;-5.90;99.90;;;;;;4976918;28;19951;-72
2024/01/14 17:28:54;;;;;;;;;;;-5.90;99.90;;;;;;4976410;28;19926;-72
2024/01/14 17:31:21;;;;;;;;;;;-6.10;99.90;;;;;;4979786;28;19930;-73
2024/01/14 17:33:47;;;;;;;;;;;-6.10;99.90;;;;;;4979543;28;19926;-72
2024/01/14 17:36:16;;;;;;;;;;;-5.90;99.90;;;;;;4980041;28;19926;-72
2024/01/14 17:38:44;;;;;;;;;;;-6.00;99.90;;;;;;4981128;28;19933;-74
2024/01/14 17:41:11;;;;;;;;;;;-6.00;99.90;;;;;;4979924;28;19930;-73
2024/01/14 17:43:38;;;;;;;;;;;-5.90;99.90;;;;;;4980047;28;19926;-73
2024/01/14 17:46:04;;;;;;;;;;;-6.00;99.90;;;;;;4980850;28;19930;-74
2024/01/14 17:48:31;;;;;;;;;;;-6.10;99.90;;;;;;4979959;28;20414;-72
2024/01/14 17:50:58;;;;;;;;;;;-6.10;99.90;;;;;;4980866;28;20307;-72
2024/01/14 17:53:25;;;;;;;;;;;-6.00;99.90;;;;;;4980403;28;20011;-73
2024/01/14 17:55:52;;;;;;;;;;;-6.20;99.90;;;;;;4981184;28;20273;-73
2024/01/14 17:58:19;;;;;;;;;;;-6.20;99.90;;;;;;4979336;28;19930;-73
2024/01/14 18:00:46;;;;;;;;;;;-6.20;99.90;;;;;;4978944;28;19936;-72
2024/01/14 18:03:13;;;;;;;;;;;-6.30;99.90;;;;;;4977925;28;19932;-71
2024/01/14 18:05:40;;;;;;;;;;;-6.30;99.90;;;;;;4977277;28;19926;-71
2024/01/14 18:08:10;;;;;;;;;;;-6.40;99.90;;;;;;4978936;28;20402;-72
2024/01/14 18:10:41;;;;;;;;;;;-6.40;99.90;;;;;;4979718;28;19926;-72
2024/01/14 18:13:08;;;;;;;;;;;-6.50;99.90;;;;;;4979728;28;19991;-72
2024/01/14 18:15:35;;;;;;;;;;;-6.50;99.90;;;;;;4979403;28;19953;-73
2024/01/14 18:18:03;;;;;;;;;;;-6.60;99.90;;;;;;4979121;28;19927;-73
2024/01/14 18:20:30;;;;;;;;;;;-6.60;99.90;;;;;;4978811;28;19980;-71
2024/01/14 18:23:00;;;;;;;;;;;-6.70;99.90;;;;;;4978943;28;19926;-73
2024/01/14 18:25:27;;;;;;;;;;;-6.70;99.90;;;;;;4978751;28;19926;-71
2024/01/14 18:27:55;;;;;;;;;;;-6.80;99.90;;;;;;4978355;28;19926;-72
2024/01/14 18:30:22;;;;;;;;;;;-6.80;99.90;;;;;;4977873;28;19934;-72
2024/01/14 18:32:48;;;;;;;;;;;-6.70;99.90;;;;;;4977327;28;19929;-73
2024/01/14 18:35:15;;;;;;;;;;;-6.80;99.90;;;;;;4976412;28;19936;-71
2024/01/14 18:37:42;;;;;;;;;;;-6.80;99.90;;;;;;4976712;28;19933;-73
2024/01/14 18:40:09;;;;;;;;;;;-6.80;99.90;;;;;;4977084;28;19934;-72
2024/01/14 18:42:36;;;;;;;;;;;-6.80;99.90;;;;;;4976965;28;19933;-72
2024/01/14 18:45:05;;;;;;;;;;;-6.80;99.90;;;;;;4976771;28;19926;-73
2024/01/14 18:47:32;;;;;;;;;;;-6.80;99.90;;;;;;4976690;28;19969;-73
2024/01/14 18:49:58;;;;;;;;;;;-6.80;99.90;;;;;;4977760;28;19926;-73
2024/01/14 18:52:25;;;;;;;;;;;-6.90;99.90;;;;;;4977009;28;19930;-73
2024/01/14 18:54:51;;;;;;;;;;;-6.90;99.90;;;;;;4977215;28;19926;-72
2024/01/14 18:57:18;;;;;;;;;;;-6.90;99.90;;;;;;4977859;28;19926;-72
2024/01/14 18:59:45;;;;;;;;;;;-6.90;99.90;;;;;;4977162;28;19926;-72
2024/01/14 19:02:14;;;;;;;;;;;-6.90;99.90;;;;;;4978060;28;19930;-72
2024/01/14 19:04:41;;;;;;;;;;;-7.00;99.90;;;;;;4977146;28;20384;-72
2024/01/14 19:07:08;;;;;;;;;;;-6.90;99.90;;;;;;4977404;28;20407;-72
2024/01/14 19:09:35;;;;;;;;;;;-7.00;99.90;;;;;;4979433;28;20376;-73
2024/01/14 19:12:03;;;;;;;;;;;-7.00;99.90;;;;;;4979813;28;19926;-73
2024/01/14 19:14:29;;;;;;;;;;;-7.00;99.90;;;;;;4980922;28;19973;-73
2024/01/14 19:16:56;;;;;;;;;;;-7.10;99.90;;;;;;4978988;28;19930;-74
2024/01/14 19:19:24;;;;;;;;;;;-7.00;99.90;;;;;;4978879;28;19933;-73
2024/01/14 19:21:51;;;;;;;;;;;-7.10;99.90;;;;;;4978980;28;20032;-73
2024/01/14 19:24:18;;;;;;;;;;;-7.10;99.90;;;;;;4978415;28;20358;-73
2024/01/14 19:26:45;;;;;;;;;;;-7.10;99.90;;;;;;4980739;28;19980;-74
2024/01/14 19:29:15;;;;;;;;;;;-7.00;99.90;;;;;;4980620;28;19933;-72
2024/01/14 19:31:41;;;;;;;;;;;-7.10;99.90;;;;;;4980515;28;19926;-74
2024/01/14 19:34:08;;;;;;;;;;;-7.10;99.90;;;;;;4978504;28;19926;-74
2024/01/14 19:36:37;;;;;;;;;;;-7.10;99.90;;;;;;4980046;28;19926;-75
2024/01/14 19:39:04;;;;;;;;;;;-7.00;99.90;;;;;;4980569;28;19933;-74
2024/01/14 19:41:31;;;;;;;;;;;-6.90;99.90;;;;;;4976713;28;20395;-74
2024/01/14 19:43:57;;;;;;;;;;;-6.90;99.90;;;;;;4975606;28;19926;-73